地図

経路データ

SID SEASON NUMBER BASIN SUBBASIN NAME ISO_TIME NATURE LAT LON WMO_WIND WMO_PRES WMO_AGENCY TRACK_TYPE DIST2LAND LANDFALL IFLAG USA_AGENCY USA_ATCF_ID USA_LAT USA_LON USA_RECORD USA_STATUS USA_WIND USA_PRES USA_SSHS USA_R34_NE USA_R34_SE USA_R34_SW USA_R34_NW USA_R50_NE USA_R50_SE USA_R50_SW USA_R50_NW USA_R64_NE USA_R64_SE USA_R64_SW USA_R64_NW USA_POCI USA_ROCI USA_RMW USA_EYE TOKYO_LAT TOKYO_LON TOKYO_GRADE TOKYO_WIND TOKYO_PRES TOKYO_R50_DIR TOKYO_R50_LONG TOKYO_R50_SHORT TOKYO_R30_DIR TOKYO_R30_LONG TOKYO_R30_SHORT TOKYO_LAND CMA_LAT CMA_LON CMA_CAT CMA_WIND CMA_PRES HKO_LAT HKO_LON HKO_CAT HKO_WIND HKO_PRES NEWDELHI_LAT NEWDELHI_LON NEWDELHI_GRADE NEWDELHI_WIND NEWDELHI_PRES NEWDELHI_CI NEWDELHI_DP NEWDELHI_POCI REUNION_LAT REUNION_LON REUNION_TYPE REUNION_WIND REUNION_PRES REUNION_TNUM REUNION_CI REUNION_RMW REUNION_R34_NE REUNION_R34_SE REUNION_R34_SW REUNION_R34_NW REUNION_R50_NE REUNION_R50_SE REUNION_R50_SW REUNION_R50_NW REUNION_R64_NE REUNION_R64_SE REUNION_R64_SW REUNION_R64_NW BOM_LAT BOM_LON BOM_TYPE BOM_WIND BOM_PRES BOM_TNUM BOM_CI BOM_RMW BOM_R34_NE BOM_R34_SE BOM_R34_SW BOM_R34_NW BOM_R50_NE BOM_R50_SE BOM_R50_SW BOM_R50_NW BOM_R64_NE BOM_R64_SE BOM_R64_SW BOM_R64_NW BOM_ROCI BOM_POCI BOM_EYE BOM_POS_METHOD BOM_PRES_METHOD NADI_LAT NADI_LON NADI_CAT NADI_WIND NADI_PRES WELLINGTON_LAT WELLINGTON_LON WELLINGTON_WIND WELLINGTON_PRES DS824_LAT DS824_LON DS824_STAGE DS824_WIND DS824_PRES TD9636_LAT TD9636_LON TD9636_STAGE TD9636_WIND TD9636_PRES TD9635_LAT TD9635_LON TD9635_WIND TD9635_PRES TD9635_ROCI NEUMANN_LAT NEUMANN_LON NEUMANN_CLASS NEUMANN_WIND NEUMANN_PRES MLC_LAT MLC_LON MLC_CLASS MLC_WIND MLC_PRES USA_GUST BOM_GUST BOM_GUST_PER REUNION_GUST REUNION_GUST_PER USA_SEAHGT USA_SEARAD_NE USA_SEARAD_SE USA_SEARAD_SW USA_SEARAD_NW STORM_SPEED STORM_DIR
1894294N21300 1894 49 NA NA NOT_NAMED 1894-10-21 06:00:00 TS 21.0000 -60.3000 35 hurdat_atl main 626 609 O____________O hurdat_atl AL071894 21.0000 -60.3000 TS 35 0 21.0000 -60.3000 TS 35 8 310
1894294N21300 1894 49 NA NA NOT_NAMED 1894-10-21 09:00:00 TS 21.2701 -60.6497 main 615 592 P____________P AL071894 21.2701 -60.6497 TS 37 0 21.2701 -60.6497 TS 37 8 307
1894294N21300 1894 49 NA NA NOT_NAMED 1894-10-21 12:00:00 TS 21.5000 -61.0000 40 hurdat_atl main 592 574 O____________O hurdat_atl AL071894 21.5000 -61.0000 TS 40 0 21.5000 -61.0000 TS 40 8 301
1894294N21300 1894 49 NA NA NOT_NAMED 1894-10-21 15:00:00 TS 21.6649 -61.3502 main 573 557 P____________P AL071894 21.6649 -61.3502 TS 40 0 21.6649 -61.3502 TS 40 7 295
1894294N21300 1894 49 NA NA NOT_NAMED 1894-10-21 18:00:00 TS 21.8000 -61.7000 40 hurdat_atl main 557 542 O____________O hurdat_atl AL071894 21.8000 -61.7000 TS 40 0 21.8000 -61.7000 TS 40 7 294
1894294N21300 1894 49 NA NA NOT_NAMED 1894-10-21 21:00:00 TS 21.9499 -62.0426 main 542 529 P____________P AL071894 21.9499 -62.0426 TS 42 0 21.9499 -62.0426 TS 42 7 295
1894294N21300 1894 49 NA NA NOT_NAMED 1894-10-22 00:00:00 TS 22.1000 -62.4000 45 hurdat_atl main 531 515 O____________O hurdat_atl AL071894 22.1000 -62.4000 TS 45 0 22.1000 -62.4000 TS 45 8 293
1894294N21300 1894 49 NA NA NOT_NAMED 1894-10-22 03:00:00 TS 22.2500 -62.7926 main 515 508 P____________P AL071894 22.2500 -62.7926 TS 45 0 22.2500 -62.7926 TS 45 8 292
1894294N21300 1894 49 NA NA NOT_NAMED 1894-10-22 06:00:00 TS 22.4000 -63.2000 45 hurdat_atl main 512 507 O____________O hurdat_atl AL071894 22.4000 -63.2000 TS 45 0 22.4000 -63.2000 TS 45 8 293
1894294N21300 1894 49 NA NA NOT_NAMED 1894-10-22 09:00:00 TS 22.5648 -63.5925 main 513 505 P____________P AL071894 22.5648 -63.5925 TS 47 0 22.5648 -63.5925 TS 47 8 292
1894294N21300 1894 49 NA NA NOT_NAMED 1894-10-22 12:00:00 TS 22.7000 -64.0000 50 hurdat_atl main 508 499 O____________O hurdat_atl AL071894 22.7000 -64.0000 TS 50 0 22.7000 -64.0000 TS 50 8 284
1894294N21300 1894 49 NA NA NOT_NAMED 1894-10-22 15:00:00 TS 22.7649 -64.4352 main 507 497 P____________P AL071894 22.7649 -64.4352 TS 50 0 22.7649 -64.4352 TS 50 8 277
1894294N21300 1894 49 NA NA NOT_NAMED 1894-10-22 18:00:00 TS 22.8000 -64.9000 50 hurdat_atl main 497 492 O____________O hurdat_atl AL071894 22.8000 -64.9000 TS 50 0 22.8000 -64.9000 TS 50 9 275
1894294N21300 1894 49 NA NA NOT_NAMED 1894-10-22 21:00:00 TS 22.8348 -65.3852 main 492 492 P____________P AL071894 22.8348 -65.3852 TS 52 0 22.8348 -65.3852 TS 52 9 276
1894294N21300 1894 49 NA NA NOT_NAMED 1894-10-23 00:00:00 TS 22.9000 -65.9000 55 hurdat_atl main 503 503 O____________O hurdat_atl AL071894 22.9000 -65.9000 TS 55 0 22.9000 -65.9000 TS 55 10 282
1894294N21300 1894 49 NA NA NOT_NAMED 1894-10-23 03:00:00 TS 23.0349 -66.4424 main 511 496 P____________P AL071894 23.0349 -66.4424 TS 57 0 23.0349 -66.4424 TS 57 11 287
1894294N21300 1894 49 NA NA NOT_NAMED 1894-10-23 06:00:00 TS 23.2000 -67.0000 60 hurdat_atl main 496 484 O____________O hurdat_atl AL071894 23.2000 -67.0000 TS 60 0 23.2000 -67.0000 TS 60 10 286
1894294N21300 1894 49 NA NA NOT_NAMED 1894-10-23 09:00:00 TS 23.3271 -67.5281 main 484 477 P____________P AL071894 23.3271 -67.5281 TS 62 0 23.3271 -67.5281 TS 60 11 287
1894294N21300 1894 49 NA NA NOT_NAMED 1894-10-23 12:00:00 TS 23.5000 -68.1000 65 hurdat_atl main 478 474 O____________O hurdat_atl AL071894 23.5000 -68.1000 HU 65 1 23.5000 -68.1000 TS 60 13 292
1894294N21300 1894 49 NA NA NOT_NAMED 1894-10-23 15:00:00 TS 23.7928 -68.7995 main 484 480 P____________P AL071894 23.7928 -68.7995 HU 65 1 23.7928 -68.7995 TS 62 14 295
1894294N21300 1894 49 NA NA NOT_NAMED 1894-10-23 18:00:00 TS 24.1000 -69.5000 65 hurdat_atl main 483 462 O____________O hurdat_atl AL071894 24.1000 -69.5000 HU 65 1 24.1000 -69.5000 HU 65 13 294
1894294N21300 1894 49 NA NA NOT_NAMED 1894-10-23 21:00:00 TS 24.3144 -70.0655 main 456 443 P____________P AL071894 24.3144 -70.0655 HU 67 1 24.3144 -70.0655 HU 67 11 292
1894294N21300 1894 49 NA NA NOT_NAMED 1894-10-24 00:00:00 TS 24.5000 -70.6000 70 hurdat_atl main 443 426 O____________O hurdat_atl AL071894 24.5000 -70.6000 HU 70 1 24.5000 -70.6000 HU 70 11 290
1894294N21300 1894 49 NA NA NOT_NAMED 1894-10-24 03:00:00 TS 24.6849 -71.1929 main 432 423 P____________P AL071894 24.6849 -71.1929 HU 72 1 24.6849 -71.1929 HU 72 12 290
1894294N21300 1894 49 NA NA NOT_NAMED 1894-10-24 06:00:00 TS 24.9000 -71.8000 75 hurdat_atl main 431 428 O____________O hurdat_atl AL071894 24.9000 -71.8000 HU 75 1 24.9000 -71.8000 HU 75 13 295
1894294N21300 1894 49 NA NA NOT_NAMED 1894-10-24 09:00:00 TS 25.2078 -72.4520 main 450 450 P____________P AL071894 25.2078 -72.4520 HU 75 1 25.2078 -72.4520 HU 75 12 299
1894294N21300 1894 49 NA NA NOT_NAMED 1894-10-24 12:00:00 TS 25.5000 -73.0000 75 hurdat_atl main 480 459 O____________O hurdat_atl AL071894 25.5000 -73.0000 HU 75 1 25.5000 -73.0000 HU 75 9 301
1894294N21300 1894 49 NA NA NOT_NAMED 1894-10-24 15:00:00 TS 25.6645 -73.2881 main 462 446 P____________P AL071894 25.6645 -73.2881 HU 77 1 25.6645 -73.2881 HU 75 5 304
1894294N21300 1894 49 NA NA NOT_NAMED 1894-10-24 18:00:00 TS 25.8000 -73.5000 80 hurdat_atl main 446 417 O____________O hurdat_atl AL071894 25.8000 -73.5000 HU 80 1 25.8000 -73.5000 HU 75 6 302
1894294N21300 1894 49 NA NA NOT_NAMED 1894-10-24 21:00:00 TS 25.9927 -73.8798 main 417 398 P____________P AL071894 25.9927 -73.8798 HU 82 1 25.9927 -73.8798 HU 75 7 302
1894294N21300 1894 49 NA NA NOT_NAMED 1894-10-25 00:00:00 TS 26.2000 -74.2000 85 hurdat_atl main 398 393 O____________O hurdat_atl AL071894 26.2000 -74.2000 HU 85 2 26.2000 -74.2000 HU 75 6 316
1894294N21300 1894 49 NA NA NOT_NAMED 1894-10-25 03:00:00 TS 26.3998 -74.3251 main 397 397 P____________P AL071894 26.3998 -74.3251 HU 85 2 26.3998 -74.3251 HU 75 4 348
1894294N21300 1894 49 NA NA NOT_NAMED 1894-10-25 06:00:00 TS 26.6000 -74.3000 85 hurdat_atl main 406 406 O____________O hurdat_atl AL071894 26.6000 -74.3000 HU 85 2 26.6000 -74.3000 HU 75 4 8
1894294N21300 1894 49 NA NA NOT_NAMED 1894-10-25 09:00:00 TS 26.7544 -74.2615 main 415 415 P____________P AL071894 26.7544 -74.2615 HU 85 2 26.7544 -74.2615 HU 75 5 34
1894294N21300 1894 49 NA NA NOT_NAMED 1894-10-25 12:00:00 TS 27.0000 -74.0000 85 hurdat_atl main 452 452 O____________O hurdat_atl AL071894 27.0000 -74.0000 HU 85 2 27.0000 -74.0000 HU 75 10 48
1894294N21300 1894 49 NA NA NOT_NAMED 1894-10-25 15:00:00 TS 27.4553 -73.3981 main 530 530 P____________P AL071894 27.4553 -73.3981 HU 85 2 27.4553 -73.3981 HU 75 16 51
1894294N21300 1894 49 NA NA NOT_NAMED 1894-10-25 18:00:00 TS 28.0000 -72.6000 85 hurdat_atl main 626 626 O____________O hurdat_atl AL071894 28.0000 -72.6000 HU 85 2 28.0000 -72.6000 HU 75 18 53
1894294N21300 1894 49 NA NA NOT_NAMED 1894-10-25 21:00:00 TS 28.4999 -71.8071 main 722 722 P____________P AL071894 28.4999 -71.8071 HU 85 2 28.4999 -71.8071 HU 75 17 55
1894294N21300 1894 49 NA NA NOT_NAMED 1894-10-26 00:00:00 TS 29.0000 -71.0000 85 hurdat_atl main 817 817 O____________O hurdat_atl AL071894 29.0000 -71.0000 HU 85 2 29.0000 -71.0000 HU 75 17 54
1894294N21300 1894 49 NA NA NOT_NAMED 1894-10-26 03:00:00 TS 29.4994 -70.2417 main 828 820 P____________P AL071894 29.4994 -70.2417 HU 85 2 29.4994 -70.2417 HU 75 16 53
1894294N21300 1894 49 NA NA NOT_NAMED 1894-10-26 06:00:00 TS 30.0000 -69.5000 85 hurdat_atl main 838 838 O____________O hurdat_atl AL071894 30.0000 -69.5000 HU 85 2 30.0000 -69.5000 HU 75 15 52
1894294N21300 1894 49 NA NA NOT_NAMED 1894-10-26 09:00:00 TS 30.4399 -68.8453 main 861 854 P____________P AL071894 30.4304 -68.8278 HU 85 2 30.4589 -68.8802 HU 75 16 52
1894294N21300 1894 49 NA NA NOT_NAMED 1894-10-26 12:00:00 TS 31.0000 -68.0000 85 hurdat_atl main 876 876 O____________O hurdat_atl AL071894 31.0000 -68.0000 HU 85 2 31.0000 -68.0000 HU 75 23 53
1894294N21300 1894 49 NA NA NOT_NAMED 1894-10-26 15:00:00 TS 31.8455 -66.6609 main 925 925 P____________P AL071894 31.8750 -66.8125 HU 85 2 31.7864 -66.3575 HU 75 30 54
1894294N21300 1894 49 NA NA NOT_NAMED 1894-10-26 18:00:00 TS 32.7667 -65.1667 85 hurdat_atl main 1000 1000 O____________O hurdat_atl AL071894 32.9000 -65.4000 HU 85 2 32.5000 -64.7000 HU 75 980 28 54
1894294N21300 1894 49 NA NA NOT_NAMED 1894-10-26 21:00:00 TS 33.5150 -63.9461 main 1058 1038 P____________P AL071894 33.8768 -63.9269 HU 85 2 32.7913 -63.9846 HU 75 26 54
1894294N21300 1894 49 NA NA NOT_NAMED 1894-10-27 00:00:00 TS 34.3000 -62.6667 85 hurdat_atl main 1041 977 O____________O hurdat_atl AL071894 34.9000 -62.4000 HU 85 2 33.1000 -63.2000 HU 75 31 52
1894294N21300 1894 49 NA NA NOT_NAMED 1894-10-27 03:00:00 TS 35.4014 -61.0146 main 973 921 P____________P AL071894 36.0071 -60.8549 HU 85 2 33.7519 -61.5511 HU 75 35 49
1894294N21300 1894 49 NA NA NOT_NAMED 1894-10-27 06:00:00 TS 36.6000 -59.3800 85 hurdat_atl main 916 870 O____________O hurdat_atl AL071894 37.1000 -59.4000 HU 85 2 34.6000 -59.3000 HU 75 33 45
1894294N21300 1894 49 NA NA NOT_NAMED 1894-10-27 09:00:00 TS 37.7535 -58.0665 main 859 773 P_____________ AL071894 38.0542 -58.1627 HU 85 2 HU 31 38
1894294N21300 1894 49 NA NA NOT_NAMED 1894-10-27 12:00:00 TS 39.0000 -57.0000 85 hurdat_atl main 767 721 O_____________ hurdat_atl AL071894 39.0000 -57.0000 HU 85 2 29 38
1894294N21300 1894 49 NA NA NOT_NAMED 1894-10-27 15:00:00 TS 40.0334 -55.7338 main 726 626 P_____________ AL071894 40.0334 -55.7338 HU 85 2 29 43
1894294N21300 1894 49 NA NA NOT_NAMED 1894-10-27 18:00:00 TS 41.1000 -54.4000 85 hurdat_atl main 614 500 O_____________ hurdat_atl AL071894 41.1000 -54.4000 HU 85 2 30 44
1894294N21300 1894 49 NA NA NOT_NAMED 1894-10-27 21:00:00 TS 42.1942 -52.9649 main 489 406 P_____________ AL071894 42.1942 -52.9649 HU 87 2 30 46
1894294N21300 1894 49 NA NA NOT_NAMED 1894-10-28 00:00:00 TS 43.2000 -51.5000 90 hurdat_atl main 400 371 O_____________ hurdat_atl AL071894 43.2000 -51.5000 HU 90 2 28 49
1894294N21300 1894 49 NA NA NOT_NAMED 1894-10-28 03:00:00 TS 44.0226 -50.0951 main 376 373 P_____________ AL071894 44.0226 -50.0951 HU 90 2 25 53
1894294N21300 1894 49 NA NA NOT_NAMED 1894-10-28 06:00:00 TS 44.7000 -48.7000 90 hurdat_atl main 405 405 O_____________ hurdat_atl AL071894 44.7000 -48.7000 HU 90 2 24 58
1894294N21300 1894 49 NA NA NOT_NAMED 1894-10-28 09:00:00 TS 45.3187 -47.1676 main 475 475 P_____________ AL071894 45.3187 -47.1676 HU 92 2 23 62
1894294N21300 1894 49 NA NA NOT_NAMED 1894-10-28 12:00:00 TS 45.8000 -45.8000 95 hurdat_atl main 550 550 O_____________ hurdat_atl AL071894 45.8000 -45.8000 HU 95 2 18 63
1894294N21300 1894 49 NA NA NOT_NAMED 1894-10-28 15:00:00 TS 46.1346 -44.8405 main 611 607 P_____________ AL071894 46.1346 -44.8405 HU 95 2 13 63
1894294N21300 1894 49 NA NA NOT_NAMED 1894-10-28 18:00:00 TS 46.4000 -44.1000 95 hurdat_atl main 653 653 O_____________ hurdat_atl AL071894 46.4000 -44.1000 HU 95 2 12 62
1894294N21300 1894 49 NA NA NOT_NAMED 1894-10-28 21:00:00 TS 46.6995 -43.3192 main 706 706 P_____________ AL071894 46.6995 -43.3192 HU 95 2 12 60
1894294N21300 1894 49 NA NA NOT_NAMED 1894-10-29 00:00:00 TS 47.0000 -42.6000 95 955 hurdat_atl main 753 753 O_____________ hurdat_atl AL071894 47.0000 -42.6000 HU 95 955 2 11 57
1894294N21300 1894 49 NA NA NOT_NAMED 1894-10-29 03:00:00 TS 47.3069 -41.9343 main 801 801 P_____________ AL071894 47.3069 -41.9343 HU 92 2 11 56
1894294N21300 1894 49 NA NA NOT_NAMED 1894-10-29 06:00:00 TS 47.6000 -41.3000 90 hurdat_atl main 843 843 O_____________ hurdat_atl AL071894 47.6000 -41.3000 HU 90 2 10 58
1894294N21300 1894 49 NA NA NOT_NAMED 1894-10-29 09:00:00 TS 47.8573 -40.6417 main 894 894 P_____________ AL071894 47.8573 -40.6417 HU 87 2 10 60
1894294N21300 1894 49 NA NA NOT_NAMED 1894-10-29 12:00:00 ET 48.1000 -40.0000 85 hurdat_atl main 938 938 O_____________ hurdat_atl AL071894 48.1000 -40.0000 EX 85 -4 10 59
1894294N21300 1894 49 NA NA NOT_NAMED 1894-10-29 15:00:00 ET 48.3571 -39.3921 main 982 982 P_____________ AL071894 48.3571 -39.3921 EX 85 -4 9 58
1894294N21300 1894 49 NA NA NOT_NAMED 1894-10-29 18:00:00 ET 48.6000 -38.8000 85 hurdat_atl main 1027 1027 O_____________ hurdat_atl AL071894 48.6000 -38.8000 EX 85 -4 9 60
1894294N21300 1894 49 NA NA NOT_NAMED 1894-10-29 21:00:00 ET 48.8071 -38.2067 main 1071 1071 P_____________ AL071894 48.8071 -38.2067 EX 85 -4 9 63
1894294N21300 1894 49 NA NA NOT_NAMED 1894-10-30 00:00:00 ET 49.0000 -37.6000 85 hurdat_atl main 1116 1116 O_____________ hurdat_atl AL071894 49.0000 -37.6000 EX 85 -4 9 65
1894294N21300 1894 49 NA NA NOT_NAMED 1894-10-30 03:00:00 ET 49.1923 -36.9568 main 1159 1159 P_____________ AL071894 49.1923 -36.9568 EX 82 -4 9 65
1894294N21300 1894 49 NA NA NOT_NAMED 1894-10-30 06:00:00 ET 49.4000 -36.3000 80 hurdat_atl main 1210 1210 O_____________ hurdat_atl AL071894 49.4000 -36.3000 EX 80 -4 9 62
1894294N21300 1894 49 NA NA NOT_NAMED 1894-10-30 09:00:00 ET 49.6342 -35.6714 main 1253 1236 P_____________ AL071894 49.6342 -35.6714 EX 80 -4 10 59
1894294N21300 1894 49 NA NA NOT_NAMED 1894-10-30 12:00:00 ET 49.9000 -35.0000 80 hurdat_atl main 1239 1227 O_____________ hurdat_atl AL071894 49.9000 -35.0000 EX 80 -4 11 59
1894294N21300 1894 49 NA NA NOT_NAMED 1894-10-30 15:00:00 ET 50.1769 -34.2434 main 1230 1220 P_____________ AL071894 50.1769 -34.2434 EX 77 -4 12 60
1894294N21300 1894 49 NA NA NOT_NAMED 1894-10-30 18:00:00 ET 50.5000 -33.4000 75 hurdat_atl main 1223 1213 O_____________ hurdat_atl AL071894 50.5000 -33.4000 EX 75 -4 13 58
1894294N21300 1894 49 NA NA NOT_NAMED 1894-10-30 21:00:00 ET 50.8842 -32.4941 main 1213 1206 P_____________ AL071894 50.8842 -32.4941 EX 72 -4 14 56
1894294N21300 1894 49 NA NA NOT_NAMED 1894-10-31 00:00:00 ET 51.3000 -31.5000 70 hurdat_atl main 1209 1206 O_____________ hurdat_atl AL071894 51.3000 -31.5000 EX 70 -4 15 58
1894294N21300 1894 49 NA NA NOT_NAMED 1894-10-31 03:00:00 ET 51.6919 -30.4278 main 1214 1213 P_____________ AL071894 51.6919 -30.4278 EX 67 -4 16 60
1894294N21300 1894 49 NA NA NOT_NAMED 1894-10-31 06:00:00 ET 52.1000 -29.3000 65 hurdat_atl main 1223 1195 O_____________ hurdat_atl AL071894 52.1000 -29.3000 EX 65 -4 16 59
1894294N21300 1894 49 NA NA NOT_NAMED 1894-10-31 09:00:00 ET 52.5420 -28.1577 main 1195 1117 P_____________ AL071894 52.5420 -28.1577 EX 65 -4 17 57
1894294N21300 1894 49 NA NA NOT_NAMED 1894-10-31 12:00:00 ET 53.0000 -27.0000 65 hurdat_atl main 1111 O_____________ hurdat_atl AL071894 53.0000 -27.0000 EX 65 -4 17 57

IBTrACS Databaseについて

本データベースは、米国NOAAが公開する1842年以降の世界の熱帯低気圧のベストトラックデータアーカイブInternational Best Track Archive for Climate Stewardship (IBTrACS)を、ウェブで閲覧しやすい形式に変換したものです。

最終更新日:2021-11-26